sensor_id;sensor_type;location;lat;lon;timestamp;P1;durP1;ratioP1;P2;durP2;ratioP2
1829;SDS011;914;48.118;11.600;2022-12-07T00:01:12;13.20;;;9.93;;
1829;SDS011;914;48.118;11.600;2022-12-07T00:03:44;13.67;;;10.77;;
1829;SDS011;914;48.118;11.600;2022-12-07T00:06:12;14.10;;;10.80;;
1829;SDS011;914;48.118;11.600;2022-12-07T00:08:39;12.37;;;10.23;;
1829;SDS011;914;48.118;11.600;2022-12-07T00:11:06;11.90;;;9.93;;
1829;SDS011;914;48.118;11.600;2022-12-07T00:13:33;11.90;;;10.23;;
1829;SDS011;914;48.118;11.600;2022-12-07T00:16:01;11.00;;;9.17;;
1829;SDS011;914;48.118;11.600;2022-12-07T00:18:28;11.47;;;9.27;;
1829;SDS011;914;48.118;11.600;2022-12-07T00:20:58;10.67;;;8.87;;
1829;SDS011;914;48.118;11.600;2022-12-07T00:23:45;10.97;;;8.87;;
1829;SDS011;914;48.118;11.600;2022-12-07T00:26:21;11.50;;;9.50;;
1829;SDS011;914;48.118;11.600;2022-12-07T00:28:52;11.10;;;9.83;;
1829;SDS011;914;48.118;11.600;2022-12-07T00:31:23;10.37;;;9.23;;
1829;SDS011;914;48.118;11.600;2022-12-07T00:33:51;12.43;;;9.67;;
1829;SDS011;914;48.118;11.600;2022-12-07T00:36:18;10.40;;;8.63;;
1829;SDS011;914;48.118;11.600;2022-12-07T00:38:45;9.50;;;8.50;;
1829;SDS011;914;48.118;11.600;2022-12-07T00:41:12;9.37;;;8.33;;
1829;SDS011;914;48.118;11.600;2022-12-07T00:43:40;10.53;;;8.70;;
1829;SDS011;914;48.118;11.600;2022-12-07T00:46:07;11.03;;;9.20;;
1829;SDS011;914;48.118;11.600;2022-12-07T00:48:33;9.50;;;8.50;;
1829;SDS011;914;48.118;11.600;2022-12-07T00:50:59;9.33;;;8.30;;
1829;SDS011;914;48.118;11.600;2022-12-07T00:53:26;10.40;;;8.73;;
1829;SDS011;914;48.118;11.600;2022-12-07T00:55:53;9.53;;;8.33;;
1829;SDS011;914;48.118;11.600;2022-12-07T00:58:20;10.10;;;8.27;;
1829;SDS011;914;48.118;11.600;2022-12-07T01:00:47;9.17;;;8.23;;
1829;SDS011;914;48.118;11.600;2022-12-07T01:03:14;9.77;;;8.43;;
1829;SDS011;914;48.118;11.600;2022-12-07T01:05:50;11.37;;;9.17;;
1829;SDS011;914;48.118;11.600;2022-12-07T01:08:20;9.80;;;8.43;;
1829;SDS011;914;48.118;11.600;2022-12-07T01:10:47;10.53;;;9.03;;
1829;SDS011;914;48.118;11.600;2022-12-07T01:13:13;9.90;;;8.50;;
1829;SDS011;914;48.118;11.600;2022-12-07T01:15:40;10.33;;;8.53;;
1829;SDS011;914;48.118;11.600;2022-12-07T01:18:07;9.97;;;7.90;;
1829;SDS011;914;48.118;11.600;2022-12-07T01:20:33;9.53;;;8.03;;
1829;SDS011;914;48.118;11.600;2022-12-07T01:23:00;10.07;;;8.20;;
1829;SDS011;914;48.118;11.600;2022-12-07T01:25:26;10.50;;;8.47;;
1829;SDS011;914;48.118;11.600;2022-12-07T01:27:54;9.27;;;7.77;;
1829;SDS011;914;48.118;11.600;2022-12-07T01:30:20;8.30;;;7.40;;
1829;SDS011;914;48.118;11.600;2022-12-07T01:32:49;8.70;;;7.77;;
1829;SDS011;914;48.118;11.600;2022-12-07T01:35:15;9.70;;;7.80;;
1829;SDS011;914;48.118;11.600;2022-12-07T01:37:44;9.20;;;7.40;;
1829;SDS011;914;48.118;11.600;2022-12-07T01:40:10;8.73;;;7.17;;
1829;SDS011;914;48.118;11.600;2022-12-07T01:42:36;10.60;;;8.07;;
1829;SDS011;914;48.118;11.600;2022-12-07T01:47:46;8.90;;;7.53;;
1829;SDS011;914;48.118;11.600;2022-12-07T01:50:22;9.17;;;7.53;;
1829;SDS011;914;48.118;11.600;2022-12-07T01:52:51;9.47;;;7.43;;
1829;SDS011;914;48.118;11.600;2022-12-07T01:55:20;8.70;;;7.77;;
1829;SDS011;914;48.118;11.600;2022-12-07T01:57:49;8.00;;;7.20;;
1829;SDS011;914;48.118;11.600;2022-12-07T02:00:17;9.03;;;8.10;;
1829;SDS011;914;48.118;11.600;2022-12-07T02:02:54;8.63;;;7.73;;
1829;SDS011;914;48.118;11.600;2022-12-07T02:05:26;9.10;;;7.80;;
1829;SDS011;914;48.118;11.600;2022-12-07T02:07:55;9.93;;;8.23;;
1829;SDS011;914;48.118;11.600;2022-12-07T02:10:24;8.60;;;7.40;;
1829;SDS011;914;48.118;11.600;2022-12-07T02:12:56;10.20;;;8.13;;
1829;SDS011;914;48.118;11.600;2022-12-07T02:15:28;9.43;;;7.43;;
1829;SDS011;914;48.118;11.600;2022-12-07T02:32:15;9.20;;;7.80;;
1829;SDS011;914;48.118;11.600;2022-12-07T02:38:50;9.60;;;8.00;;
1829;SDS011;914;48.118;11.600;2022-12-07T02:41:04;9.37;;;7.70;;
1829;SDS011;914;48.118;11.600;2022-12-07T02:43:47;9.13;;;8.03;;
1829;SDS011;914;48.118;11.600;2022-12-07T02:46:23;9.07;;;7.77;;
1829;SDS011;914;48.118;11.600;2022-12-07T02:48:53;10.13;;;8.27;;
1829;SDS011;914;48.118;11.600;2022-12-07T02:51:21;10.57;;;8.43;;
1829;SDS011;914;48.118;11.600;2022-12-07T02:53:47;9.03;;;7.73;;
1829;SDS011;914;48.118;11.600;2022-12-07T02:56:16;9.27;;;7.87;;
1829;SDS011;914;48.118;11.600;2022-12-07T03:03:58;9.43;;;8.03;;
1829;SDS011;914;48.118;11.600;2022-12-07T03:06:49;9.23;;;8.07;;
1829;SDS011;914;48.118;11.600;2022-12-07T03:12:05;9.87;;;7.97;;
1829;SDS011;914;48.118;11.600;2022-12-07T03:14:53;11.23;;;8.13;;
1829;SDS011;914;48.118;11.600;2022-12-07T03:17:28;10.20;;;8.43;;
1829;SDS011;914;48.118;11.600;2022-12-07T03:19:58;9.57;;;8.17;;
1829;SDS011;914;48.118;11.600;2022-12-07T03:22:27;11.50;;;8.47;;
1829;SDS011;914;48.118;11.600;2022-12-07T03:25:00;10.13;;;8.27;;
1829;SDS011;914;48.118;11.600;2022-12-07T03:27:34;10.07;;;8.53;;
1829;SDS011;914;48.118;11.600;2022-12-07T03:30:04;9.87;;;8.07;;
1829;SDS011;914;48.118;11.600;2022-12-07T03:32:34;9.80;;;8.37;;
1829;SDS011;914;48.118;11.600;2022-12-07T03:35:04;9.00;;;8.10;;
1829;SDS011;914;48.118;11.600;2022-12-07T03:43:15;11.73;;;8.57;;
1829;SDS011;914;48.118;11.600;2022-12-07T03:45:43;11.30;;;8.10;;
1829;SDS011;914;48.118;11.600;2022-12-07T03:48:30;10.60;;;8.20;;
1829;SDS011;914;48.118;11.600;2022-12-07T03:51:02;9.20;;;8.10;;
1829;SDS011;914;48.118;11.600;2022-12-07T03:53:55;10.27;;;8.63;;
1829;SDS011;914;48.118;11.600;2022-12-07T03:56:32;10.47;;;8.90;;
1829;SDS011;914;48.118;11.600;2022-12-07T03:58:59;10.47;;;9.07;;
1829;SDS011;914;48.118;11.600;2022-12-07T04:01:25;9.60;;;8.60;;
1829;SDS011;914;48.118;11.600;2022-12-07T04:03:50;10.10;;;8.60;;
1829;SDS011;914;48.118;11.600;2022-12-07T04:06:19;11.53;;;9.00;;
1829;SDS011;914;48.118;11.600;2022-12-07T04:08:45;11.20;;;8.70;;
1829;SDS011;914;48.118;11.600;2022-12-07T04:11:11;10.63;;;8.70;;
1829;SDS011;914;48.118;11.600;2022-12-07T04:13:36;9.37;;;8.33;;
1829;SDS011;914;48.118;11.600;2022-12-07T04:16:22;11.07;;;9.10;;
1829;SDS011;914;48.118;11.600;2022-12-07T04:18:48;11.10;;;9.20;;
1829;SDS011;914;48.118;11.600;2022-12-07T04:21:14;12.20;;;10.03;;
1829;SDS011;914;48.118;11.600;2022-12-07T04:23:39;10.13;;;8.70;;
1829;SDS011;914;48.118;11.600;2022-12-07T04:26:08;11.40;;;9.50;;
1829;SDS011;914;48.118;11.600;2022-12-07T04:28:34;12.13;;;9.97;;
1829;SDS011;914;48.118;11.600;2022-12-07T04:31:00;11.43;;;9.53;;
1829;SDS011;914;48.118;11.600;2022-12-07T04:33:26;11.93;;;10.00;;
1829;SDS011;914;48.118;11.600;2022-12-07T04:35:52;11.93;;;9.67;;
1829;SDS011;914;48.118;11.600;2022-12-07T04:38:17;12.47;;;9.93;;
1829;SDS011;914;48.118;11.600;2022-12-07T04:40:43;12.50;;;10.37;;
1829;SDS011;914;48.118;11.600;2022-12-07T04:43:09;11.47;;;9.27;;
1829;SDS011;914;48.118;11.600;2022-12-07T04:45:34;10.23;;;9.00;;
1829;SDS011;914;48.118;11.600;2022-12-07T04:48:00;11.70;;;10.03;;
1829;SDS011;914;48.118;11.600;2022-12-07T04:50:26;12.07;;;9.83;;
1829;SDS011;914;48.118;11.600;2022-12-07T04:52:51;11.70;;;9.73;;
1829;SDS011;914;48.118;11.600;2022-12-07T04:55:17;10.97;;;9.70;;
1829;SDS011;914;48.118;11.600;2022-12-07T04:57:43;12.17;;;10.23;;
1829;SDS011;914;48.118;11.600;2022-12-07T05:00:11;12.60;;;10.47;;
1829;SDS011;914;48.118;11.600;2022-12-07T05:02:37;12.57;;;10.23;;
1829;SDS011;914;48.118;11.600;2022-12-07T05:05:03;13.33;;;10.80;;
1829;SDS011;914;48.118;11.600;2022-12-07T05:07:29;12.93;;;9.80;;
1829;SDS011;914;48.118;11.600;2022-12-07T05:09:55;13.10;;;10.10;;
1829;SDS011;914;48.118;11.600;2022-12-07T05:12:21;13.30;;;10.80;;
1829;SDS011;914;48.118;11.600;2022-12-07T05:14:46;12.00;;;10.33;;
1829;SDS011;914;48.118;11.600;2022-12-07T05:17:12;11.33;;;9.70;;
1829;SDS011;914;48.118;11.600;2022-12-07T05:19:38;12.07;;;9.83;;
1829;SDS011;914;48.118;11.600;2022-12-07T05:22:06;12.63;;;10.13;;
1829;SDS011;914;48.118;11.600;2022-12-07T05:24:35;13.30;;;9.87;;
1829;SDS011;914;48.118;11.600;2022-12-07T05:27:01;12.77;;;10.73;;
1829;SDS011;914;48.118;11.600;2022-12-07T05:29:27;11.17;;;9.33;;
1829;SDS011;914;48.118;11.600;2022-12-07T05:31:55;11.27;;;9.80;;
1829;SDS011;914;48.118;11.600;2022-12-07T05:34:21;11.97;;;10.30;;
1829;SDS011;914;48.118;11.600;2022-12-07T05:36:47;12.43;;;9.83;;
1829;SDS011;914;48.118;11.600;2022-12-07T05:39:12;13.57;;;10.50;;
1829;SDS011;914;48.118;11.600;2022-12-07T05:41:38;12.20;;;10.17;;
1829;SDS011;914;48.118;11.600;2022-12-07T05:44:23;11.97;;;10.17;;
1829;SDS011;914;48.118;11.600;2022-12-07T05:46:48;12.40;;;9.77;;
1829;SDS011;914;48.118;11.600;2022-12-07T05:49:14;12.70;;;10.03;;
1829;SDS011;914;48.118;11.600;2022-12-07T05:51:42;11.07;;;9.70;;
1829;SDS011;914;48.118;11.600;2022-12-07T05:54:11;11.17;;;9.80;;
1829;SDS011;914;48.118;11.600;2022-12-07T05:56:37;10.63;;;9.10;;
1829;SDS011;914;48.118;11.600;2022-12-07T05:59:03;11.63;;;9.23;;
1829;SDS011;914;48.118;11.600;2022-12-07T06:01:47;12.37;;;9.60;;
1829;SDS011;914;48.118;11.600;2022-12-07T06:04:16;11.47;;;9.83;;
1829;SDS011;914;48.118;11.600;2022-12-07T06:06:46;13.97;;;10.47;;
1829;SDS011;914;48.118;11.600;2022-12-07T06:09:22;12.77;;;10.27;;
1829;SDS011;914;48.118;11.600;2022-12-07T06:11:49;11.17;;;9.97;;
1829;SDS011;914;48.118;11.600;2022-12-07T06:14:33;13.17;;;9.93;;
1829;SDS011;914;48.118;11.600;2022-12-07T06:16:59;11.77;;;10.23;;
1829;SDS011;914;48.118;11.600;2022-12-07T06:19:25;14.23;;;10.90;;
1829;SDS011;914;48.118;11.600;2022-12-07T06:21:51;13.27;;;11.03;;
1829;SDS011;914;48.118;11.600;2022-12-07T06:24:19;13.27;;;11.23;;
1829;SDS011;914;48.118;11.600;2022-12-07T06:26:48;11.67;;;10.43;;
1829;SDS011;914;48.118;11.600;2022-12-07T06:29:15;13.13;;;11.07;;
1829;SDS011;914;48.118;11.600;2022-12-07T06:31:41;14.07;;;10.90;;
1829;SDS011;914;48.118;11.600;2022-12-07T06:34:09;14.93;;;10.77;;
1829;SDS011;914;48.118;11.600;2022-12-07T06:36:37;14.30;;;11.90;;
1829;SDS011;914;48.118;11.600;2022-12-07T06:39:03;15.63;;;11.67;;
1829;SDS011;914;48.118;11.600;2022-12-07T06:41:29;15.80;;;11.43;;
1829;SDS011;914;48.118;11.600;2022-12-07T06:43:58;14.93;;;11.87;;
1829;SDS011;914;48.118;11.600;2022-12-07T06:46:23;13.87;;;10.87;;
1829;SDS011;914;48.118;11.600;2022-12-07T06:48:49;14.33;;;10.80;;
1829;SDS011;914;48.118;11.600;2022-12-07T06:51:15;13.90;;;11.33;;
1829;SDS011;914;48.118;11.600;2022-12-07T06:53:40;13.47;;;10.53;;
1829;SDS011;914;48.118;11.600;2022-12-07T06:56:06;14.73;;;10.73;;
1829;SDS011;914;48.118;11.600;2022-12-07T06:58:32;14.50;;;10.57;;
1829;SDS011;914;48.118;11.600;2022-12-07T07:00:58;13.87;;;10.40;;
1829;SDS011;914;48.118;11.600;2022-12-07T07:03:24;12.57;;;11.10;;
1829;SDS011;914;48.118;11.600;2022-12-07T07:05:50;12.73;;;10.43;;
1829;SDS011;914;48.118;11.600;2022-12-07T07:08:18;15.27;;;10.90;;
1829;SDS011;914;48.118;11.600;2022-12-07T07:10:44;14.37;;;10.80;;
1829;SDS011;914;48.118;11.600;2022-12-07T07:13:13;12.73;;;10.17;;
1829;SDS011;914;48.118;11.600;2022-12-07T07:15:39;12.57;;;10.53;;
1829;SDS011;914;48.118;11.600;2022-12-07T07:18:05;12.67;;;10.50;;
1829;SDS011;914;48.118;11.600;2022-12-07T07:20:31;14.33;;;10.03;;
1829;SDS011;914;48.118;11.600;2022-12-07T07:22:56;14.17;;;10.17;;
1829;SDS011;914;48.118;11.600;2022-12-07T07:25:22;13.43;;;10.53;;
1829;SDS011;914;48.118;11.600;2022-12-07T07:27:48;12.63;;;10.40;;
1829;SDS011;914;48.118;11.600;2022-12-07T07:30:14;13.43;;;9.93;;
1829;SDS011;914;48.118;11.600;2022-12-07T07:32:39;10.90;;;9.77;;
1829;SDS011;914;48.118;11.600;2022-12-07T07:35:05;11.60;;;10.10;;
1829;SDS011;914;48.118;11.600;2022-12-07T07:37:31;10.97;;;9.57;;
1829;SDS011;914;48.118;11.600;2022-12-07T07:39:57;11.30;;;9.60;;
1829;SDS011;914;48.118;11.600;2022-12-07T07:42:22;12.50;;;10.33;;
1829;SDS011;914;48.118;11.600;2022-12-07T07:44:48;12.43;;;10.57;;
1829;SDS011;914;48.118;11.600;2022-12-07T07:47:13;12.77;;;10.10;;
1829;SDS011;914;48.118;11.600;2022-12-07T07:49:39;12.73;;;10.13;;
1829;SDS011;914;48.118;11.600;2022-12-07T07:52:05;14.87;;;10.60;;
1829;SDS011;914;48.118;11.600;2022-12-07T07:54:31;13.00;;;10.10;;
1829;SDS011;914;48.118;11.600;2022-12-07T07:56:57;11.73;;;10.00;;
1829;SDS011;914;48.118;11.600;2022-12-07T07:59:23;13.80;;;10.53;;
1829;SDS011;914;48.118;11.600;2022-12-07T08:01:50;14.43;;;10.97;;
1829;SDS011;914;48.118;11.600;2022-12-07T08:04:16;12.97;;;9.67;;
1829;SDS011;914;48.118;11.600;2022-12-07T08:06:41;12.23;;;10.17;;
1829;SDS011;914;48.118;11.600;2022-12-07T08:09:08;11.97;;;10.23;;
1829;SDS011;914;48.118;11.600;2022-12-07T08:11:34;12.57;;;9.77;;
1829;SDS011;914;48.118;11.600;2022-12-07T08:14:01;15.83;;;10.13;;
1829;SDS011;914;48.118;11.600;2022-12-07T08:16:27;12.60;;;10.40;;
1829;SDS011;914;48.118;11.600;2022-12-07T08:18:53;13.87;;;11.20;;
1829;SDS011;914;48.118;11.600;2022-12-07T08:21:19;14.60;;;11.10;;
1829;SDS011;914;48.118;11.600;2022-12-07T08:23:45;11.97;;;10.33;;
1829;SDS011;914;48.118;11.600;2022-12-07T08:26:11;14.00;;;11.50;;
1829;SDS011;914;48.118;11.600;2022-12-07T08:28:39;15.03;;;10.70;;
1829;SDS011;914;48.118;11.600;2022-12-07T08:31:08;16.10;;;12.10;;
1829;SDS011;914;48.118;11.600;2022-12-07T08:33:36;15.27;;;10.97;;
1829;SDS011;914;48.118;11.600;2022-12-07T08:36:02;16.23;;;12.00;;
1829;SDS011;914;48.118;11.600;2022-12-07T08:38:30;14.07;;;10.73;;
1829;SDS011;914;48.118;11.600;2022-12-07T08:40:56;13.63;;;11.43;;
1829;SDS011;914;48.118;11.600;2022-12-07T08:43:23;21.57;;;15.53;;
1829;SDS011;914;48.118;11.600;2022-12-07T08:45:50;15.23;;;12.07;;
1829;SDS011;914;48.118;11.600;2022-12-07T08:48:26;15.27;;;11.47;;
1829;SDS011;914;48.118;11.600;2022-12-07T08:50:52;12.17;;;10.20;;
1829;SDS011;914;48.118;11.600;2022-12-07T08:53:18;14.20;;;11.67;;
1829;SDS011;914;48.118;11.600;2022-12-07T08:55:46;14.33;;;11.00;;
1829;SDS011;914;48.118;11.600;2022-12-07T08:58:12;14.07;;;11.40;;
1829;SDS011;914;48.118;11.600;2022-12-07T09:00:38;12.43;;;10.77;;
1829;SDS011;914;48.118;11.600;2022-12-07T09:03:04;12.53;;;10.20;;
1829;SDS011;914;48.118;11.600;2022-12-07T09:05:30;13.40;;;10.50;;
1829;SDS011;914;48.118;11.600;2022-12-07T09:07:59;14.93;;;11.13;;
1829;SDS011;914;48.118;11.600;2022-12-07T09:10:28;13.63;;;10.63;;
1829;SDS011;914;48.118;11.600;2022-12-07T09:12:54;11.83;;;9.90;;
1829;SDS011;914;48.118;11.600;2022-12-07T09:15:20;11.13;;;9.90;;
1829;SDS011;914;48.118;11.600;2022-12-07T09:17:45;13.13;;;10.80;;
1829;SDS011;914;48.118;11.600;2022-12-07T09:20:11;11.70;;;10.00;;
1829;SDS011;914;48.118;11.600;2022-12-07T09:22:37;13.23;;;10.03;;
1829;SDS011;914;48.118;11.600;2022-12-07T09:25:03;13.13;;;10.53;;
1829;SDS011;914;48.118;11.600;2022-12-07T09:27:29;12.10;;;9.83;;
1829;SDS011;914;48.118;11.600;2022-12-07T09:29:55;12.47;;;10.53;;
1829;SDS011;914;48.118;11.600;2022-12-07T09:32:21;12.77;;;10.13;;
1829;SDS011;914;48.118;11.600;2022-12-07T09:34:47;11.23;;;9.10;;
1829;SDS011;914;48.118;11.600;2022-12-07T09:37:12;10.10;;;8.63;;
1829;SDS011;914;48.118;11.600;2022-12-07T09:39:39;11.33;;;9.60;;
1829;SDS011;914;48.118;11.600;2022-12-07T09:42:05;11.57;;;8.90;;
1829;SDS011;914;48.118;11.600;2022-12-07T09:44:32;11.13;;;9.00;;
1829;SDS011;914;48.118;11.600;2022-12-07T09:46:59;11.00;;;8.90;;
1829;SDS011;914;48.118;11.600;2022-12-07T09:49:27;11.00;;;9.60;;
1829;SDS011;914;48.118;11.600;2022-12-07T09:52:00;10.67;;;9.27;;
1829;SDS011;914;48.118;11.600;2022-12-07T09:54:33;10.70;;;8.87;;
1829;SDS011;914;48.118;11.600;2022-12-07T09:57:07;10.90;;;9.37;;
1829;SDS011;914;48.118;11.600;2022-12-07T09:59:33;10.80;;;9.00;;
1829;SDS011;914;48.118;11.600;2022-12-07T10:02:04;10.80;;;9.40;;
1829;SDS011;914;48.118;11.600;2022-12-07T10:04:52;11.27;;;8.73;;
1829;SDS011;914;48.118;11.600;2022-12-07T10:07:19;11.40;;;9.50;;
1829;SDS011;914;48.118;11.600;2022-12-07T10:09:44;9.67;;;8.20;;
1829;SDS011;914;48.118;11.600;2022-12-07T10:12:11;12.90;;;8.17;;
1829;SDS011;914;48.118;11.600;2022-12-07T10:14:38;9.57;;;8.57;;
1829;SDS011;914;48.118;11.600;2022-12-07T10:22:36;15.20;;;8.57;;
1829;SDS011;914;48.118;11.600;2022-12-07T10:25:08;10.13;;;7.73;;
1829;SDS011;914;48.118;11.600;2022-12-07T10:27:43;9.77;;;7.67;;
1829;SDS011;914;48.118;11.600;2022-12-07T10:30:12;7.67;;;6.77;;
1829;SDS011;914;48.118;11.600;2022-12-07T10:32:40;7.73;;;6.93;;
1829;SDS011;914;48.118;11.600;2022-12-07T10:37:56;7.17;;;6.43;;
1829;SDS011;914;48.118;11.600;2022-12-07T10:40:34;8.47;;;7.13;;
1829;SDS011;914;48.118;11.600;2022-12-07T10:48:46;9.77;;;7.30;;
1829;SDS011;914;48.118;11.600;2022-12-07T10:51:44;7.50;;;6.63;;
1829;SDS011;914;48.118;11.600;2022-12-07T11:03:29;8.13;;;6.10;;
1829;SDS011;914;48.118;11.600;2022-12-07T11:06:25;6.23;;;5.50;;
1829;SDS011;914;48.118;11.600;2022-12-07T11:12:11;6.20;;;5.60;;
1829;SDS011;914;48.118;11.600;2022-12-07T11:17:31;6.13;;;5.53;;
1829;SDS011;914;48.118;11.600;2022-12-07T11:25:32;5.20;;;4.70;;
1829;SDS011;914;48.118;11.600;2022-12-07T11:28:25;5.33;;;4.73;;
1829;SDS011;914;48.118;11.600;2022-12-07T11:34:19;5.07;;;4.43;;
1829;SDS011;914;48.118;11.600;2022-12-07T11:37:13;5.10;;;4.60;;
1829;SDS011;914;48.118;11.600;2022-12-07T11:39:48;4.80;;;4.30;;
1829;SDS011;914;48.118;11.600;2022-12-07T11:42:37;4.60;;;4.20;;
1829;SDS011;914;48.118;11.600;2022-12-07T11:45:15;5.30;;;4.80;;
1829;SDS011;914;48.118;11.600;2022-12-07T11:50:27;5.70;;;4.80;;
1829;SDS011;914;48.118;11.600;2022-12-07T11:53:14;5.10;;;4.60;;
1829;SDS011;914;48.118;11.600;2022-12-07T12:06:34;4.90;;;4.00;;
1829;SDS011;914;48.118;11.600;2022-12-07T12:16:58;5.53;;;4.70;;
1829;SDS011;914;48.118;11.600;2022-12-07T12:22:39;8.43;;;4.80;;
1829;SDS011;914;48.118;11.600;2022-12-07T12:25:19;5.47;;;4.73;;
1829;SDS011;914;48.118;11.600;2022-12-07T12:27:50;6.70;;;5.10;;
1829;SDS011;914;48.118;11.600;2022-12-07T12:46:45;5.87;;;5.27;;
1829;SDS011;914;48.118;11.600;2022-12-07T12:51:50;7.73;;;5.50;;
1829;SDS011;914;48.118;11.600;2022-12-07T12:54:29;8.40;;;6.07;;
1829;SDS011;914;48.118;11.600;2022-12-07T12:59:39;7.07;;;6.10;;
1829;SDS011;914;48.118;11.600;2022-12-07T13:02:24;6.90;;;6.20;;
1829;SDS011;914;48.118;11.600;2022-12-07T13:13:25;7.13;;;6.40;;
1829;SDS011;914;48.118;11.600;2022-12-07T13:15:56;7.43;;;6.10;;
1829;SDS011;914;48.118;11.600;2022-12-07T13:18:40;7.40;;;6.40;;
1829;SDS011;914;48.118;11.600;2022-12-07T13:28:49;6.50;;;5.77;;
1829;SDS011;914;48.118;11.600;2022-12-07T13:31:30;6.50;;;5.90;;
1829;SDS011;914;48.118;11.600;2022-12-07T13:34:33;7.67;;;6.40;;
1829;SDS011;914;48.118;11.600;2022-12-07T13:40:01;7.83;;;6.47;;
1829;SDS011;914;48.118;11.600;2022-12-07T13:42:47;8.03;;;6.13;;
1829;SDS011;914;48.118;11.600;2022-12-07T13:45:20;7.00;;;6.30;;
1829;SDS011;914;48.118;11.600;2022-12-07T13:48:52;8.23;;;5.80;;
1829;SDS011;914;48.118;11.600;2022-12-07T13:51:20;7.77;;;6.00;;
1829;SDS011;914;48.118;11.600;2022-12-07T13:53:49;7.87;;;6.33;;
1829;SDS011;914;48.118;11.600;2022-12-07T13:56:17;7.63;;;6.50;;
1829;SDS011;914;48.118;11.600;2022-12-07T13:58:43;7.00;;;6.23;;
1829;SDS011;914;48.118;11.600;2022-12-07T14:01:09;8.03;;;6.47;;
1829;SDS011;914;48.118;11.600;2022-12-07T14:03:35;7.83;;;6.70;;
1829;SDS011;914;48.118;11.600;2022-12-07T14:06:22;7.30;;;5.73;;
1829;SDS011;914;48.118;11.600;2022-12-07T14:08:50;7.23;;;6.13;;
1829;SDS011;914;48.118;11.600;2022-12-07T14:11:30;7.30;;;6.47;;
1829;SDS011;914;48.118;11.600;2022-12-07T14:13:58;6.67;;;5.90;;
1829;SDS011;914;48.118;11.600;2022-12-07T14:16:35;21.07;;;6.00;;
1829;SDS011;914;48.118;11.600;2022-12-07T14:19:03;9.07;;;5.93;;
1829;SDS011;914;48.118;11.600;2022-12-07T14:21:31;9.10;;;6.63;;
1829;SDS011;914;48.118;11.600;2022-12-07T14:24:07;8.53;;;6.40;;
1829;SDS011;914;48.118;11.600;2022-12-07T14:26:42;6.57;;;5.80;;
1829;SDS011;914;48.118;11.600;2022-12-07T14:29:20;12.63;;;6.60;;
1829;SDS011;914;48.118;11.600;2022-12-07T14:31:47;8.87;;;6.30;;
1829;SDS011;914;48.118;11.600;2022-12-07T14:34:13;10.93;;;6.40;;
1829;SDS011;914;48.118;11.600;2022-12-07T14:36:38;6.47;;;5.47;;
1829;SDS011;914;48.118;11.600;2022-12-07T14:39:04;6.97;;;6.27;;
1829;SDS011;914;48.118;11.600;2022-12-07T14:41:30;7.53;;;6.10;;
1829;SDS011;914;48.118;11.600;2022-12-07T14:44:14;7.73;;;6.20;;
1829;SDS011;914;48.118;11.600;2022-12-07T14:46:39;8.07;;;6.40;;
1829;SDS011;914;48.118;11.600;2022-12-07T14:49:05;7.23;;;6.37;;
1829;SDS011;914;48.118;11.600;2022-12-07T14:51:31;8.47;;;6.57;;
1829;SDS011;914;48.118;11.600;2022-12-07T14:53:58;8.33;;;6.50;;
1829;SDS011;914;48.118;11.600;2022-12-07T14:56:24;7.27;;;6.10;;
1829;SDS011;914;48.118;11.600;2022-12-07T14:58:50;7.57;;;6.50;;
1829;SDS011;914;48.118;11.600;2022-12-07T15:01:16;8.60;;;6.73;;
1829;SDS011;914;48.118;11.600;2022-12-07T15:03:42;7.70;;;6.33;;
1829;SDS011;914;48.118;11.600;2022-12-07T15:06:10;8.27;;;6.57;;
1829;SDS011;914;48.118;11.600;2022-12-07T15:08:39;8.17;;;6.53;;
1829;SDS011;914;48.118;11.600;2022-12-07T15:11:05;7.07;;;5.93;;
1829;SDS011;914;48.118;11.600;2022-12-07T15:13:30;7.93;;;7.10;;
1829;SDS011;914;48.118;11.600;2022-12-07T15:16:17;9.20;;;6.80;;
1829;SDS011;914;48.118;11.600;2022-12-07T15:18:46;10.60;;;7.97;;
1829;SDS011;914;48.118;11.600;2022-12-07T15:21:15;7.20;;;6.27;;
1829;SDS011;914;48.118;11.600;2022-12-07T15:23:41;8.97;;;6.70;;
1829;SDS011;914;48.118;11.600;2022-12-07T15:26:07;12.20;;;7.40;;
1829;SDS011;914;48.118;11.600;2022-12-07T15:28:35;9.73;;;7.40;;
1829;SDS011;914;48.118;11.600;2022-12-07T15:31:00;9.50;;;7.17;;
1829;SDS011;914;48.118;11.600;2022-12-07T15:33:26;12.40;;;7.27;;
1829;SDS011;914;48.118;11.600;2022-12-07T15:35:52;10.43;;;7.40;;
1829;SDS011;914;48.118;11.600;2022-12-07T15:38:17;16.57;;;11.10;;
1829;SDS011;914;48.118;11.600;2022-12-07T15:40:46;11.20;;;8.80;;
1829;SDS011;914;48.118;11.600;2022-12-07T15:43:12;10.97;;;8.23;;
1829;SDS011;914;48.118;11.600;2022-12-07T15:45:56;9.50;;;7.80;;
1829;SDS011;914;48.118;11.600;2022-12-07T15:48:22;10.87;;;8.80;;
1829;SDS011;914;48.118;11.600;2022-12-07T15:50:47;10.70;;;8.70;;
1829;SDS011;914;48.118;11.600;2022-12-07T15:53:13;10.43;;;8.87;;
1829;SDS011;914;48.118;11.600;2022-12-07T15:55:39;11.60;;;8.67;;
1829;SDS011;914;48.118;11.600;2022-12-07T15:58:05;11.03;;;8.20;;
1829;SDS011;914;48.118;11.600;2022-12-07T16:00:31;10.37;;;8.70;;
1829;SDS011;914;48.118;11.600;2022-12-07T16:02:57;10.03;;;8.03;;
1829;SDS011;914;48.118;11.600;2022-12-07T16:05:23;11.50;;;9.23;;
1829;SDS011;914;48.118;11.600;2022-12-07T16:07:48;13.00;;;9.67;;
1829;SDS011;914;48.118;11.600;2022-12-07T16:10:14;11.80;;;9.13;;
1829;SDS011;914;48.118;11.600;2022-12-07T16:12:40;10.77;;;8.87;;
1829;SDS011;914;48.118;11.600;2022-12-07T16:15:05;10.53;;;8.30;;
1829;SDS011;914;48.118;11.600;2022-12-07T16:17:31;12.63;;;9.70;;
1829;SDS011;914;48.118;11.600;2022-12-07T16:19:57;10.87;;;8.83;;
1829;SDS011;914;48.118;11.600;2022-12-07T16:22:23;10.50;;;8.90;;
1829;SDS011;914;48.118;11.600;2022-12-07T16:24:48;11.03;;;9.17;;
1829;SDS011;914;48.118;11.600;2022-12-07T16:27:14;15.80;;;9.50;;
1829;SDS011;914;48.118;11.600;2022-12-07T16:29:41;12.10;;;9.50;;
1829;SDS011;914;48.118;11.600;2022-12-07T16:32:06;13.20;;;10.53;;
1829;SDS011;914;48.118;11.600;2022-12-07T16:34:32;13.80;;;10.63;;
1829;SDS011;914;48.118;11.600;2022-12-07T16:36:58;12.40;;;9.70;;
1829;SDS011;914;48.118;11.600;2022-12-07T16:39:24;11.97;;;9.83;;
1829;SDS011;914;48.118;11.600;2022-12-07T16:41:49;14.87;;;9.80;;
1829;SDS011;914;48.118;11.600;2022-12-07T16:44:15;11.57;;;9.60;;
1829;SDS011;914;48.118;11.600;2022-12-07T16:46:41;10.43;;;8.73;;
1829;SDS011;914;48.118;11.600;2022-12-07T16:49:13;12.17;;;9.77;;
1829;SDS011;914;48.118;11.600;2022-12-07T16:51:40;12.97;;;9.97;;
1829;SDS011;914;48.118;11.600;2022-12-07T16:54:11;13.93;;;9.77;;
1829;SDS011;914;48.118;11.600;2022-12-07T16:56:38;13.77;;;10.10;;
1829;SDS011;914;48.118;11.600;2022-12-07T16:59:04;14.70;;;11.03;;
1829;SDS011;914;48.118;11.600;2022-12-07T17:01:30;18.07;;;10.27;;
1829;SDS011;914;48.118;11.600;2022-12-07T17:03:56;12.77;;;10.10;;
1829;SDS011;914;48.118;11.600;2022-12-07T17:06:24;12.90;;;10.07;;
1829;SDS011;914;48.118;11.600;2022-12-07T17:08:52;14.53;;;10.00;;
1829;SDS011;914;48.118;11.600;2022-12-07T17:11:20;11.90;;;10.00;;
1829;SDS011;914;48.118;11.600;2022-12-07T17:13:48;13.10;;;9.70;;
1829;SDS011;914;48.118;11.600;2022-12-07T17:16:33;12.97;;;10.47;;
1829;SDS011;914;48.118;11.600;2022-12-07T17:19:00;14.20;;;10.40;;
1829;SDS011;914;48.118;11.600;2022-12-07T17:21:32;13.83;;;9.60;;
1829;SDS011;914;48.118;11.600;2022-12-07T17:23:59;12.50;;;9.43;;
1829;SDS011;914;48.118;11.600;2022-12-07T17:26:26;12.43;;;9.93;;
1829;SDS011;914;48.118;11.600;2022-12-07T17:28:53;14.43;;;10.77;;
1829;SDS011;914;48.118;11.600;2022-12-07T17:31:20;13.40;;;9.73;;
1829;SDS011;914;48.118;11.600;2022-12-07T17:33:47;14.13;;;9.77;;